ADDS METAR Data INFO
IDs: Format: Raw Decoded Include TAF

Data at: 2157 UTC 24 Feb 2018

PAFA 242153Z 17004KT 10SM FEW090 BKN160 M16/M17 A2958 RMK AO2 SLP031 T11561172 $
PAFA 242053Z 00000KT 10SM FEW090 BKN160 M16/M18 A2957 RMK AO2 SLP027 T11611183 53002 $
PAFA 241953Z 00000KT 10SM FEW090 BKN160 M19/M21 A2957 RMK AO2 SLP027 T11891206 $
PAFA 241853Z 00000KT 10SM FEW090 BKN160 M18/M20 A2956 RMK AO2 SLP025 T11831200 $
PAFA 241753Z 00000KT 10SM FEW090 BKN160 M18/M21 A2956 RMK AO2 SLP024 T11831206 11178 21222 55003 $
PAFA 241653Z 00000KT 10SM FEW090 BKN140 M18/M21 A2956 RMK AO2 SLP023 T11831206 $
PAFA 241553Z 03003KT 10SM FEW090 BKN140 M19/M21 A2956 RMK AO2 SLP023 T11891211 $
PAFA 241453Z 03004KT 10SM FEW090 SCT160 M18/M20 A2957 RMK AO2 SLP027 T11831200 56022 $
PAFA 241353Z 00000KT 10SM FEW090 SCT160 M20/M23 A2958 RMK AO2 SLP030 T12001228 $
PAFA 241253Z 00000KT 10SM FEW090 M21/M23 A2961 RMK AO2 SLP041 T12111228 $
PAFA 241153Z 08004KT 10SM CLR M21/M23 A2964 RMK AO2 SLP050 T12111228 11178 21228 58039 $
PAFA 241053Z 05005KT 10SM CLR M22/M23 A2968 RMK AO2 SLP065 T12171228 $
PAFA 240953Z 03004KT 10SM CLR M23/M24 A2972 RMK AO2 SLP078 T12281239 VISNO NE $
PAFA 240853Z 03003KT 10SM CLR M20/M21 A2976 RMK AO2 SLP089 T12001211 410441228 58042 $
PAFA 240753Z 00000KT 10SM CLR M21/M22 A2980 RMK AO2 SLP104 T12061222 $
PAFA 240653Z 00000KT 10SM CLR M18/M21 A2984 RMK AO2 SLP118 T11831206 $
PAFA 240553Z 00000KT 10SM CLR M17/M18 A2988 RMK AO2 SLP132 T11721178 11061 21194 58039 $
PAFA 240453Z 03003KT 10SM CLR M17/M18 A2992 RMK AO2 SLP144 T11671183 $
PAFA 240353Z 00000KT 10SM FEW035 FEW100 M14/M16 A2997 RMK AO2 SLP160 T11391156 $
PAFA 240253Z 20003KT 10SM SCT033 SCT060 BKN100 M13/M15 A3000 RMK AO2 SLP171 T11331150 58029 $
PAFA 240153Z COR 22003KT 10SM SCT033 SCT060 BKN100 M08/M12 A3004 RMK AO2 SLP183 T10781122
PAFA 240053Z 22006KT 10SM SCT035 BKN060 BKN100 M07/M12 A3006 RMK AO2 SNE09 SLP191 T10671117
PAFA 232353Z 25012G23KT 10SM -SN FEW013 BKN031 BKN055 M07/M12 A3009 RMK AO2 SLP199 T10671117 11061 21072 58009
PAFA 232253Z 25009G20KT 6SM -SN BR FEW013 BKN027 OVC055 M07/M11 A3010 RMK AO2 SLP203 T10671111
PAFA 232153Z 25014G21KT 6SM -SN BR FEW015 BKN030 OVC055 M07/M11 A3010 RMK AO2 PK WND 25027/2110 SLP204 T10721106
PAFA 232132Z 26013G24KT 3SM -SN BR FEW015 BKN032 OVC055 M07/M11 A3011 RMK AO2 PK WND 25027/2110 SFC VIS 5 T10721111
PAFA 232053Z 27011G21KT 3SM -SN BR SCT016 BKN027 OVC050 M07/M11 A3011 RMK AO2 SFC VIS 4 SLP208 T10721106 53011
PAFA 231953Z 26012G20KT 3SM -SN BR SCT016 BKN030 OVC055 M07/M10 A3010 RMK AO2 PK WND 27028/1854 SLP203 T10671100
PAFA 231941Z 26012G19KT 3SM -SN BR SCT018 BKN027 OVC050 M07/M10 A3010 RMK AO2 PK WND 27028/1854 T10671100
PAFA 231853Z 26017G26KT 1 1/2SM R02L/6000VP6000FT -SN BLSN BR SCT017 BKN024 OVC035 M07/M10 A3009 RMK AO2 PK WND 25031/1835 TWR VIS 2 SLP198 T10721100
PAFA 231847Z 26015KT 1 1/2SM R02L/5500VP6000FT -SN BLSN BR SCT017 BKN025 OVC035 M07/M10 A3009 RMK AO2 PK WND 25031/1835 TWR VIS 2
PAFA 231813Z 26014G21KT 2SM -SN BR BKN019 BKN026 OVC035 M07/M10 A3009 RMK AO2 T10671100
PAFA 231805Z 26013G21KT 1 1/2SM -SN BR BKN019 OVC026 M07/M10 A3008 RMK AO2 T10671100
PAFA 231753Z 26010G22KT 3/4SM R02L/P6000FT -SN BR BKN018 OVC022 M07/M10 A3008 RMK AO2 PK WND 26026/1701 TWR VIS 1 SLP197 T10721100 11056 21072 51023
PAFA 231717Z 25014G24KT 1SM R02L/P6000FT -SN BR OVC021 M07/M09 A3007 RMK AO2 PK WND 26026/1701 SFC VIS 1 1/2 T10671094
PAFA 231653Z 27012G26KT 3SM R02L/6000VP6000FT -SN BR OVC025 M07/M10 A3006 RMK AO2 PK WND 26026/1648 SLP190 T10671100
PAFA 231553Z 22009G19KT 3SM -SN BLSN OVC025 M07/M09 A3004 RMK AO2 SLP182 T10671094 $
PAFA 231453Z 24012G22KT 2 1/2SM -SN BLSN OVC025 M07/M09 A3001 RMK AO2 PK WND 25026/1433 TWR VIS 3 SLP172 T10671094 53015 $
PAFA 231436Z 25014G26KT 3SM -SN BLSN OVC025 M06/M09 A3001 RMK AO2 PK WND 25026/1433 T10611094 $
PAFA 231406Z 25015G26KT 2SM -SN BR OVC020 M06/M09 A3000 RMK AO2 PK WND 26026/1357 TWR VIS 3 T10611094 $
PAFA 231353Z 25013G30KT 1SM R02L/P6000FT -SN BR OVC020 M06/M09 A2999 RMK AO2 PK WND 26032/1339 SLP164 T10611089 $
PAFA 231253Z 23010G18KT 200V260 1 1/2SM -SN BR OVC023 M06/M08 A2998 RMK AO2 PK WND 24028/1242 SLP162 T10611083 $
PAFA 231153Z 25016G25KT 1SM R02L/5500VP6000FT -SN BR OVC024 M06/M08 A2997 RMK AO2 PK WND 27030/1110 SLP157 T10561078 11033 21056 $
PAFA 231103Z 25017G26KT 1SM R02L/P6000FT -SN BR VV018 M05/M07 A2996 RMK AO2 PK WND 27026/1055 T10501072 $
PAFA 231053Z 25016G26KT 3/4SM R02L/P6000FT -SN BR VV009 M05/M07 A2996 RMK AO2 PK WND 25031/1036 TWR VIS 1 SLP155 T10501072 $
PAFA 231020Z 25014G26KT 1/2SM R02L/4500V6000FT -SN FZFG VV009 M05/M06 A2994 RMK AO2 PK WND 24026/1015 TWR VIS 1 T10501061 $